Time;durP1;ratioP1;P1;durP2;ratioP2;P2;SDS_P1;SDS_P2;PMS_P1;PMS_P2;Temp;Humidity;BMP_temperature;BMP_pressure;BME280_temperature;BME280_humidity;BME280_pressure;Samples;Min_cycle;Max_cycle;Signal;HPM_P1;HPM_P2
2021/05/04 00:00:56;;;;;;;20.10;15.30;;;11.20;95.50;;;;;;4975049;28;20089;-74
2021/05/04 00:03:21;;;;;;;24.17;14.77;;;11.00;95.10;;;;;;4974913;28;20483;-71
2021/05/04 00:05:47;;;;;;;18.63;12.45;;;11.10;96.00;;;;;;4957478;28;20027;-73
2021/05/04 00:08:14;;;;;;;23.17;12.70;;;11.10;95.30;;;;;;4975022;28;20082;-73
2021/05/04 00:10:40;;;;;;;16.45;11.55;;;11.20;94.90;;;;;;4974868;28;20019;-73
2021/05/04 00:13:06;;;;;;;17.35;11.68;;;11.30;94.10;;;;;;4975298;28;20558;-74
2021/05/04 00:15:32;;;;;;;19.55;11.48;;;11.30;94.70;;;;;;4974771;28;20031;-74
2021/05/04 00:17:58;;;;;;;20.88;11.77;;;11.30;94.40;;;;;;4974493;28;20122;-73
2021/05/04 00:20:24;;;;;;;17.15;12.20;;;11.20;94.60;;;;;;4975240;28;20081;-72
2021/05/04 00:22:50;;;;;;;20.73;12.45;;;11.10;95.20;;;;;;4974803;28;20027;-74
2021/05/04 00:25:16;;;;;;;16.92;11.80;;;11.20;95.40;;;;;;4974762;28;20027;-72
2021/05/04 00:27:42;;;;;;;16.40;11.90;;;11.20;95.20;;;;;;4974470;28;20019;-73
2021/05/04 00:30:09;;;;;;;16.58;11.80;;;11.10;94.80;;;;;;4957296;28;20031;-72
2021/05/04 00:32:34;;;;;;;18.05;12.63;;;11.00;94.70;;;;;;4974745;28;20485;-72
2021/05/04 00:35:00;;;;;;;22.10;13.10;;;10.90;94.90;;;;;;4957329;28;20033;-74
2021/05/04 00:37:27;;;;;;;21.67;12.75;;;10.90;95.00;;;;;;4974589;28;20050;-74
2021/05/04 00:39:53;;;;;;;17.33;12.77;;;10.90;95.00;;;;;;4974431;28;20425;-74
2021/05/04 00:42:23;;;;;;;18.95;13.73;;;10.90;95.20;;;;;;4974132;28;20080;-72
2021/05/04 00:44:49;;;;;;;19.13;13.63;;;10.80;95.40;;;;;;4974748;28;20037;-73
2021/05/04 00:47:15;;;;;;;18.50;13.85;;;10.80;95.60;;;;;;4974315;28;20023;-73
2021/05/04 00:49:41;;;;;;;23.58;14.02;;;10.70;95.80;;;;;;4974427;28;20154;-73
2021/05/04 00:52:07;;;;;;;19.27;14.40;;;10.80;96.00;;;;;;4973941;28;20525;-73
2021/05/04 00:54:33;;;;;;;21.95;14.13;;;10.70;96.00;;;;;;4974196;28;20037;-72
2021/05/04 00:57:00;;;;;;;21.88;14.63;;;10.70;96.60;;;;;;4974172;28;20029;-73
2021/05/04 00:59:28;;;;;;;22.48;14.32;;;10.70;96.90;;;;;;4974284;28;20477;-73
2021/05/04 01:01:55;;;;;;;19.98;13.43;;;10.80;97.10;;;;;;4974380;28;20082;-73
2021/05/04 01:04:22;;;;;;;24.80;13.77;;;10.80;97.10;;;;;;4975915;28;20492;-74
2021/05/04 01:06:49;;;;;;;21.13;13.73;;;10.80;97.00;;;;;;4977781;28;20037;-73
2021/05/04 01:09:17;;;;;;;19.15;13.43;;;10.90;97.70;;;;;;4960309;28;20479;-73
2021/05/04 01:11:44;;;;;;;19.58;13.85;;;10.90;97.50;;;;;;4978019;28;20023;-73
2021/05/04 01:14:11;;;;;;;23.60;14.43;;;10.90;97.90;;;;;;4978242;28;20409;-72
2021/05/04 01:16:42;;;;;;;18.90;13.27;;;10.90;97.70;;;;;;4977571;28;20023;-73
2021/05/04 01:19:09;;;;;;;23.88;14.98;;;10.70;97.80;;;;;;4977369;28;20458;-74
2021/05/04 01:21:35;;;;;;;24.70;14.95;;;10.60;98.40;;;;;;4977594;28;20027;-73
2021/05/04 01:24:01;;;;;;;23.98;15.73;;;10.60;98.80;;;;;;4978088;28;20023;-72
2021/05/04 01:26:27;;;;;;;25.05;16.60;;;10.60;99.10;;;;;;4977630;28;20488;-73
2021/05/04 01:28:53;;;;;;;22.73;14.73;;;10.60;98.90;;;;;;4976507;28;20023;-71
2021/05/04 01:31:18;;;;;;;22.08;14.68;;;10.70;98.80;;;;;;4959764;28;20113;-72
2021/05/04 01:33:44;;;;;;;21.88;15.30;;;10.70;98.80;;;;;;4977414;28;20027;-73
2021/05/04 01:36:11;;;;;;;21.83;14.77;;;10.60;99.10;;;;;;4959994;28;20019;-74
2021/05/04 01:38:37;;;;;;;20.58;14.38;;;10.60;99.40;;;;;;4976947;28;20026;-73
2021/05/04 01:41:02;;;;;;;22.00;14.63;;;10.50;99.40;;;;;;4977660;28;20101;-72
2021/05/04 01:43:28;;;;;;;21.08;14.77;;;10.50;99.30;;;;;;4977592;28;20106;-72
2021/05/04 01:45:54;;;;;;;17.30;13.57;;;10.50;99.00;;;;;;4976975;28;20033;-73
2021/05/04 01:48:20;;;;;;;21.77;13.88;;;10.60;99.40;;;;;;4977082;28;20023;-73
2021/05/04 01:50:46;;;;;;;21.20;14.40;;;10.50;98.90;;;;;;4976855;28;20019;-71
2021/05/04 01:53:12;;;;;;;17.00;13.60;;;10.60;99.10;;;;;;4977155;28;20496;-72
2021/05/04 01:55:38;;;;;;;20.98;13.55;;;10.50;98.80;;;;;;4976236;28;20031;-71
2021/05/04 01:58:04;;;;;;;20.25;14.20;;;10.40;99.20;;;;;;4959640;28;20022;-74
2021/05/04 02:00:30;;;;;;;20.60;14.18;;;10.30;99.20;;;;;;4976969;28;20393;-73
2021/05/04 02:02:56;;;;;;;22.70;14.13;;;10.20;99.60;;;;;;4977094;28;20023;-73
2021/05/04 02:05:22;;;;;;;20.05;14.82;;;10.20;99.40;;;;;;4959287;28;20082;-73
2021/05/04 02:07:48;;;;;;;21.88;15.63;;;10.10;99.90;;;;;;4976494;28;20081;-72
2021/05/04 02:10:14;;;;;;;21.20;14.27;;;10.10;99.90;;;;;;4976749;28;20480;-73
2021/05/04 02:12:43;;;;;;;21.98;14.32;;;10.00;99.90;;;;;;4976653;28;20019;-71
2021/05/04 02:15:10;;;;;;;21.80;14.55;;;10.00;99.90;;;;;;4976118;28;20381;-71
2021/05/04 02:17:36;;;;;;;19.30;13.50;;;10.10;99.90;;;;;;4976136;28;20030;-73
2021/05/04 02:20:06;;;;;;;17.88;13.85;;;10.10;99.90;;;;;;4976640;28;20027;-71
2021/05/04 02:22:33;;;;;;;19.60;13.13;;;10.00;99.90;;;;;;4958788;28;20035;-72
2021/05/04 02:25:00;;;;;;;19.65;13.73;;;10.00;99.90;;;;;;4963345;28;20082;-72
2021/05/04 02:27:26;;;;;;;17.27;12.77;;;10.00;99.90;;;;;;4957001;29;20102;-71
2021/05/04 02:29:52;;;;;;;20.83;13.32;;;10.10;99.90;;;;;;4957242;29;20051;-73
2021/05/04 02:32:18;;;;;;;17.88;13.40;;;10.00;99.90;;;;;;4957283;29;20023;-71
2021/05/04 02:34:44;;;;;;;18.55;12.05;;;10.10;99.90;;;;;;4957005;29;20019;-73
2021/05/04 02:37:10;;;;;;;17.50;12.32;;;10.00;99.90;;;;;;4956508;29;20086;-73
2021/05/04 02:39:36;;;;;;;15.15;12.20;;;10.00;99.90;;;;;;4939453;29;20027;-73
2021/05/04 02:42:02;;;;;;;19.25;12.93;;;10.00;99.90;;;;;;4956887;29;20074;-73
2021/05/04 02:44:28;;;;;;;15.35;11.73;;;9.90;99.90;;;;;;4956721;29;20082;-73
2021/05/04 02:46:54;;;;;;;15.43;11.70;;;9.80;99.90;;;;;;4957170;29;20015;-75
2021/05/04 02:49:20;;;;;;;14.27;11.13;;;9.70;99.90;;;;;;4956651;29;20370;-75
2021/05/04 02:51:46;;;;;;;17.15;11.73;;;9.60;99.90;;;;;;4956619;29;20445;-75
2021/05/04 02:54:12;;;;;;;15.52;11.68;;;9.60;99.90;;;;;;4956583;29;20478;-74
2021/05/04 02:56:38;;;;;;;16.75;12.73;;;9.60;99.90;;;;;;4956513;29;20031;-72
2021/05/04 02:59:04;;;;;;;16.58;11.77;;;9.70;99.90;;;;;;4956968;29;20497;-73
2021/05/04 03:01:30;;;;;;;16.20;12.00;;;9.60;99.90;;;;;;4956545;29;20023;-72
2021/05/04 03:03:56;;;;;;;16.05;12.40;;;9.70;99.90;;;;;;4939221;29;20028;-74
2021/05/04 03:06:22;;;;;;;17.27;11.82;;;9.70;99.90;;;;;;4956402;29;20020;-74
2021/05/04 03:08:48;;;;;;;14.15;11.25;;;9.70;99.90;;;;;;4956826;29;20030;-73
2021/05/04 03:11:13;;;;;;;15.15;11.32;;;9.80;99.90;;;;;;4938908;29;20058;-73
2021/05/04 03:13:39;;;;;;;17.42;12.25;;;9.60;99.90;;;;;;4938958;29;20027;-73
2021/05/04 03:16:05;;;;;;;17.27;12.27;;;9.50;99.90;;;;;;4956041;29;20031;-73
2021/05/04 03:18:31;;;;;;;17.42;11.75;;;9.50;99.90;;;;;;4956413;29;20020;-73
2021/05/04 03:20:57;;;;;;;14.77;10.95;;;9.40;99.90;;;;;;4938910;29;20034;-72
2021/05/04 03:23:24;;;;;;;20.15;12.50;;;9.40;99.90;;;;;;4956159;29;20414;-73
2021/05/04 03:25:51;;;;;;;16.17;11.75;;;9.30;99.90;;;;;;4955941;29;20027;-72
2021/05/04 03:28:18;;;;;;;17.33;12.10;;;9.30;99.90;;;;;;4956301;28;20023;-73
2021/05/04 03:30:44;;;;;;;16.88;12.30;;;9.40;99.90;;;;;;4955838;29;20020;-74
2021/05/04 03:33:10;;;;;;;20.88;13.18;;;9.30;99.90;;;;;;4956284;29;20024;-73
2021/05/04 03:35:37;;;;;;;21.15;12.82;;;9.40;99.90;;;;;;4955771;29;20074;-71
2021/05/04 03:38:03;;;;;;;19.70;12.75;;;9.40;99.90;;;;;;4955652;29;20489;-73
2021/05/04 03:40:30;;;;;;;18.23;11.77;;;9.40;99.90;;;;;;4955561;29;20119;-74
2021/05/04 03:42:58;;;;;;;16.92;12.00;;;9.50;99.90;;;;;;4956459;29;20027;-74
2021/05/04 03:45:24;;;;;;;16.77;11.98;;;9.60;99.90;;;;;;4955827;29;20028;-73
2021/05/04 03:47:50;;;;;;;13.90;10.73;;;9.50;99.90;;;;;;4956323;29;20407;-73
2021/05/04 03:50:21;;;;;;;16.15;10.75;;;9.60;99.90;;;;;;4955699;29;20466;-73
2021/05/04 03:52:48;;;;;;;16.17;11.02;;;9.50;99.90;;;;;;4955385;29;20043;-73
2021/05/04 03:55:15;;;;;;;13.55;10.80;;;9.40;99.90;;;;;;4955552;29;20027;-73
2021/05/04 03:57:41;;;;;;;15.55;11.25;;;9.40;99.90;;;;;;4955600;29;20078;-73
2021/05/04 04:00:10;;;;;;;19.05;11.35;;;9.50;99.90;;;;;;4955579;29;20106;-73
2021/05/04 04:02:36;;;;;;;16.58;11.73;;;9.60;99.90;;;;;;4955592;29;20075;-74
2021/05/04 04:05:04;;;;;;;17.88;11.07;;;9.60;99.90;;;;;;4938286;29;20031;-72
2021/05/04 04:07:30;;;;;;;15.27;11.68;;;9.70;99.90;;;;;;4955604;29;20019;-72
2021/05/04 04:09:56;;;;;;;14.43;11.15;;;9.80;99.90;;;;;;4938467;29;20474;-74
2021/05/04 04:12:24;;;;;;;17.83;11.63;;;9.70;99.90;;;;;;4955629;29;20090;-74
2021/05/04 04:14:51;;;;;;;15.32;11.38;;;9.70;99.90;;;;;;4955652;29;20553;-72
2021/05/04 04:17:16;;;;;;;17.70;10.98;;;9.80;99.90;;;;;;4955642;29;20168;-74
2021/05/04 04:19:42;;;;;;;14.73;11.18;;;9.80;99.90;;;;;;4955526;29;20023;-73
2021/05/04 04:22:08;;;;;;;16.15;11.77;;;9.90;99.90;;;;;;4955496;29;20505;-72
2021/05/04 04:24:34;;;;;;;19.08;11.63;;;9.80;99.90;;;;;;4955245;29;20034;-73
2021/05/04 04:27:00;;;;;;;16.50;11.70;;;9.70;99.90;;;;;;4955400;29;20027;-72
2021/05/04 04:29:26;;;;;;;17.63;10.82;;;9.80;99.90;;;;;;4955412;29;20026;-72
2021/05/04 04:31:53;;;;;;;18.40;11.50;;;9.80;99.90;;;;;;4955548;29;20027;-73
2021/05/04 04:34:19;;;;;;;36.85;27.38;;;9.90;99.90;;;;;;4955273;29;20019;-73
2021/05/04 04:36:45;;;;;;;46.42;31.17;;;10.00;99.90;;;;;;4937964;29;20019;-73
2021/05/04 04:39:12;;;;;;;34.33;29.52;;;10.20;99.90;;;;;;4956545;28;20359;-74
2021/05/04 04:41:41;;;;;;;35.13;29.30;;;10.40;99.90;;;;;;4959289;29;20502;-72
2021/05/04 04:44:09;;;;;;;29.65;25.55;;;10.50;99.90;;;;;;4959153;29;20133;-74
2021/05/04 04:46:41;;;;;;;27.42;21.17;;;10.50;99.90;;;;;;4959185;29;20023;-73
2021/05/04 04:49:09;;;;;;;21.17;14.27;;;10.60;99.90;;;;;;4941783;29;20059;-73
2021/05/04 04:51:35;;;;;;;17.95;11.40;;;10.60;99.90;;;;;;4958428;29;20050;-73
2021/05/04 04:54:03;;;;;;;13.20;10.02;;;10.70;99.90;;;;;;4958645;29;20474;-73
2021/05/04 04:56:29;;;;;;;15.27;10.07;;;10.80;99.80;;;;;;4958737;29;20027;-73
2021/05/04 04:58:55;;;;;;;17.30;11.20;;;10.80;98.20;;;;;;4959248;29;20029;-73
2021/05/04 05:01:20;;;;;;;16.73;10.70;;;10.90;97.80;;;;;;4958903;29;20023;-71
2021/05/04 05:03:46;;;;;;;14.90;10.18;;;10.90;98.00;;;;;;4958580;29;20078;-73
2021/05/04 05:06:12;;;;;;;16.17;11.30;;;11.00;97.70;;;;;;4959474;29;20034;-75
2021/05/04 05:08:38;;;;;;;14.68;10.25;;;11.20;98.40;;;;;;4959258;29;20027;-72
2021/05/04 05:11:04;;;;;;;15.35;11.30;;;11.20;97.40;;;;;;4958597;29;20054;-73
2021/05/04 05:13:30;;;;;;;19.90;14.18;;;11.20;96.40;;;;;;4958966;29;20085;-73
2021/05/04 05:15:55;;;;;;;28.35;23.35;;;11.30;96.60;;;;;;4958030;29;20031;-72
2021/05/04 05:18:21;;;;;;;33.30;28.08;;;11.30;96.40;;;;;;4958184;29;20026;-73
2021/05/04 05:20:47;;;;;;;32.90;28.13;;;11.30;96.80;;;;;;4958275;29;20027;-73
2021/05/04 05:23:13;;;;;;;31.98;26.35;;;11.50;96.50;;;;;;4940800;29;20117;-72
2021/05/04 05:25:40;;;;;;;33.15;28.27;;;11.50;96.70;;;;;;4941086;29;20491;-73
2021/05/04 05:28:06;;;;;;;28.15;21.13;;;11.70;96.70;;;;;;4958563;29;20094;-71
2021/05/04 05:30:33;;;;;;;26.92;15.75;;;;;;;;;;4958189;29;20019;-73
2021/05/04 05:32:58;;;;;;;19.70;12.68;;;11.80;96.40;;;;;;4958294;29;20035;-71
2021/05/04 05:35:24;;;;;;;23.80;20.58;;;11.90;96.90;;;;;;4958143;29;20023;-73
2021/05/04 05:37:50;;;;;;;29.38;24.33;;;11.90;96.60;;;;;;4957864;29;20034;-71
2021/05/04 05:40:16;;;;;;;33.33;29.70;;;12.00;96.60;;;;;;4940533;29;20035;-73
2021/05/04 05:42:42;;;;;;;35.42;29.63;;;12.20;96.40;;;;;;4958101;29;20056;-72
2021/05/04 05:45:09;;;;;;;36.58;29.33;;;12.40;95.10;;;;;;4957887;29;20508;-73
2021/05/04 05:47:35;;;;;;;27.65;23.20;;;12.40;94.80;;;;;;4957900;29;20075;-73
2021/05/04 05:50:01;;;;;;;22.25;18.70;;;12.50;95.10;;;;;;4957809;28;20019;-72
2021/05/04 05:52:27;;;;;;;20.73;17.90;;;12.50;94.80;;;;;;4957719;29;20074;-72
2021/05/04 05:54:53;;;;;;;19.85;16.92;;;12.70;95.00;;;;;;4956892;29;20035;-71
2021/05/04 05:57:18;;;;;;;17.48;15.38;;;12.80;95.00;;;;;;4956656;29;20027;-70
2021/05/04 05:59:44;;;;;;;14.00;11.27;;;13.00;94.70;;;;;;4956983;29;20406;-69
2021/05/04 06:02:10;;;;;;;15.65;10.95;;;13.20;94.50;;;;;;4957047;29;20028;-72
2021/05/04 06:04:36;;;;;;;13.13;9.48;;;;;;;;;;4957129;29;20020;-72
2021/05/04 06:07:02;;;;;;;12.73;9.82;;;13.30;92.90;;;;;;4940040;29;20019;-69
2021/05/04 06:09:28;;;;;;;11.23;8.77;;;13.40;93.40;;;;;;4957368;29;20031;-72
2021/05/04 06:11:54;;;;;;;13.48;10.18;;;13.60;92.40;;;;;;4957408;29;20020;-72
2021/05/04 06:14:20;;;;;;;15.13;9.05;;;13.60;92.00;;;;;;4958864;29;20026;-72
2021/05/04 06:16:46;;;;;;;10.77;7.82;;;13.70;92.20;;;;;;4958042;29;20015;-74
2021/05/04 06:19:13;;;;;;;10.65;8.00;;;;;;;;;;4957331;29;20023;-73
2021/05/04 06:21:39;;;;;;;9.45;7.22;;;13.90;90.40;;;;;;4957953;29;20402;-73
2021/05/04 06:24:05;;;;;;;10.35;7.03;;;14.10;90.40;;;;;;4957224;29;20532;-70
2021/05/04 06:26:31;;;;;;;9.25;6.75;;;14.20;90.60;;;;;;4957403;29;20027;-72
2021/05/04 06:28:57;;;;;;;11.55;6.88;;;14.30;89.20;;;;;;4957153;29;20027;-73
2021/05/04 06:31:23;;;;;;;10.07;6.95;;;14.50;87.60;;;;;;4939788;29;20023;-72
2021/05/04 06:33:49;;;;;;;13.60;6.80;;;14.50;84.80;;;;;;4956877;29;20024;-69
2021/05/04 06:36:15;;;;;;;11.98;6.43;;;14.50;81.10;;;;;;4956815;29;20027;-73
2021/05/04 06:38:41;;;;;;;9.23;5.90;;;14.70;80.70;;;;;;4957088;29;20111;-72
2021/05/04 06:41:07;;;;;;;12.82;6.50;;;14.90;81.60;;;;;;4965038;28;20034;-73
2021/05/04 06:43:33;;;;;;;10.60;6.03;;;15.10;82.40;;;;;;4963169;28;20032;-71
2021/05/04 06:45:59;;;;;;;8.57;5.82;;;;;;;;;;4951219;28;20382;-74
2021/05/04 06:48:25;;;;;;;10.70;6.35;;;15.30;77.10;;;;;;4959833;28;20077;-73
2021/05/04 06:50:52;;;;;;;10.52;6.05;;;15.30;74.00;;;;;;4955213;29;20425;-70
2021/05/04 06:53:18;;;;;;;10.27;5.47;;;15.40;75.30;;;;;;4953990;29;20031;-71
2021/05/04 06:55:46;;;;;;;9.32;5.75;;;15.50;74.60;;;;;;4954464;29;20082;-71
2021/05/04 06:58:12;;;;;;;9.65;5.57;;;15.70;73.80;;;;;;4954397;29;20038;-70
2021/05/04 07:00:38;;;;;;;10.00;5.45;;;15.70;70.80;;;;;;4954183;29;20031;-70
2021/05/04 07:03:04;;;;;;;12.18;6.68;;;15.90;71.40;;;;;;4953797;28;20039;-71
2021/05/04 07:05:30;;;;;;;11.70;6.15;;;16.00;70.70;;;;;;4940961;28;20402;-71
2021/05/04 07:07:56;;;;;;;8.18;5.50;;;16.00;69.40;;;;;;4958841;28;20031;-71
2021/05/04 07:10:22;;;;;;;12.18;6.15;;;16.30;71.80;;;;;;4964109;28;20023;-71
2021/05/04 07:12:48;;;;;;;11.40;7.38;;;16.30;69.60;;;;;;4965062;28;20511;-72
2021/05/04 07:15:14;;;;;;;9.52;6.22;;;16.30;69.40;;;;;;4963710;28;20521;-72
2021/05/04 07:17:41;;;;;;;12.85;7.13;;;16.50;67.90;;;;;;4964944;28;20077;-73
2021/05/04 07:20:07;;;;;;;12.52;6.88;;;16.70;67.00;;;;;;4947817;28;20494;-69
2021/05/04 07:22:35;;;;;;;11.90;7.25;;;16.90;66.60;;;;;;4963154;28;20185;-73
2021/05/04 07:25:01;;;;;;;9.38;6.05;;;17.10;67.10;;;;;;4964800;28;20025;-73
2021/05/04 07:27:27;;;;;;;13.00;6.28;;;17.30;65.90;;;;;;4964876;28;20023;-72
2021/05/04 07:29:53;;;;;;;12.43;7.15;;;17.30;62.00;;;;;;4964469;28;20023;-70
2021/05/04 07:32:19;;;;;;;11.77;6.85;;;17.40;64.20;;;;;;4958100;28;20019;-71
2021/05/04 07:34:46;;;;;;;14.70;7.70;;;;;;;;;;4963278;28;20096;-73
2021/05/04 07:37:12;;;;;;;16.85;8.35;;;17.90;63.20;;;;;;4964508;28;20035;-72
2021/05/04 07:39:38;;;;;;;11.50;6.43;;;17.80;62.10;;;;;;4965892;28;20104;-72
2021/05/04 07:42:05;;;;;;;9.05;5.70;;;17.80;60.60;;;;;;4971781;28;20027;-72
2021/05/04 07:44:31;;;;;;;10.65;6.00;;;18.00;60.60;;;;;;4962922;28;20019;-70
2021/05/04 07:46:58;;;;;;;11.10;5.43;;;18.00;59.70;;;;;;4965630;28;20058;-73
2021/05/04 07:49:44;;;;;;;8.73;5.65;;;18.10;59.60;;;;;;4974917;28;20042;-74
2021/05/04 07:52:10;;;;;;;10.63;5.50;;;18.00;57.70;;;;;;4974674;28;20501;-74
2021/05/04 07:54:37;;;;;;;8.32;5.00;;;18.20;58.90;;;;;;4974991;28;20110;-73
2021/05/04 07:57:03;;;;;;;11.30;5.65;;;18.10;59.20;;;;;;4975193;28;20058;-75
2021/05/04 07:59:29;;;;;;;9.45;5.53;;;18.30;59.00;;;;;;4974925;28;20042;-73
2021/05/04 08:01:56;;;;;;;11.15;4.85;;;18.50;55.50;;;;;;4975396;28;20058;-75
2021/05/04 08:04:28;;;;;;;9.75;4.18;;;18.80;57.70;;;;;;4974885;28;20097;-75
2021/05/04 08:06:56;;;;;;;7.38;4.35;;;18.80;57.70;;;;;;4974761;28;20454;-75
2021/05/04 08:09:22;;;;;;;10.98;5.32;;;19.00;56.00;;;;;;4974755;28;20030;-76
2021/05/04 08:11:48;;;;;;;6.78;4.07;;;19.00;54.50;;;;;;4973636;28;20023;-74
2021/05/04 08:14:14;;;;;;;8.25;4.40;;;18.90;54.30;;;;;;4974837;28;20029;-73
2021/05/04 08:16:40;;;;;;;8.93;4.47;;;19.20;56.90;;;;;;4976791;28;20027;-71
2021/05/04 08:19:06;;;;;;;8.27;4.15;;;19.10;52.60;;;;;;4976472;28;20023;-72
2021/05/04 08:21:35;;;;;;;8.32;4.22;;;18.90;54.10;;;;;;4976422;28;20027;-72
2021/05/04 08:24:06;;;;;;;8.32;4.90;;;19.00;54.60;;;;;;4958994;28;20030;-71
2021/05/04 08:26:32;;;;;;;10.82;4.50;;;19.20;54.50;;;;;;4976509;28;20042;-73
2021/05/04 08:28:58;;;;;;;9.32;4.60;;;19.30;52.90;;;;;;4977026;28;20041;-75
2021/05/04 08:31:24;;;;;;;9.45;4.60;;;19.40;53.50;;;;;;4978657;28;20070;-75
2021/05/04 08:33:51;;;;;;;9.02;4.90;;;19.80;55.10;;;;;;4978604;28;20023;-72
2021/05/04 08:36:17;;;;;;;9.38;5.05;;;19.80;52.60;;;;;;4978428;28;20026;-75
2021/05/04 08:38:43;;;;;;;8.30;4.63;;;19.60;52.30;;;;;;4978223;28;20114;-71
2021/05/04 08:41:09;;;;;;;7.25;3.70;;;19.60;51.40;;;;;;4978384;28;20118;-72
2021/05/04 08:43:35;;;;;;;6.80;4.25;;;20.00;52.00;;;;;;4978524;28;20405;-75
2021/05/04 08:46:02;;;;;;;7.40;4.03;;;20.10;53.00;;;;;;4978437;28;20022;-76
2021/05/04 08:48:35;;;;;;;8.85;4.10;;;20.20;51.70;;;;;;4978334;28;20066;-75
2021/05/04 08:51:01;;;;;;;10.65;5.45;;;20.40;53.00;;;;;;4959837;28;20055;-76
2021/05/04 08:53:27;;;;;;;7.18;4.65;;;20.40;51.70;;;;;;4977995;28;20026;-75
2021/05/04 08:55:53;;;;;;;10.55;4.60;;;20.60;51.70;;;;;;4977771;28;20481;-76
2021/05/04 08:58:20;;;;;;;8.05;3.70;;;20.70;53.90;;;;;;4960727;28;20027;-72
2021/05/04 09:00:47;;;;;;;7.75;4.10;;;20.90;52.80;;;;;;4978060;28;20400;-75
2021/05/04 09:03:21;;;;;;;8.73;4.80;;;21.20;51.70;;;;;;4974352;28;20031;-73
2021/05/04 09:09:02;;;;;;;7.07;3.75;;;21.20;51.30;;;;;;4943560;29;20031;-73
2021/05/04 09:17:09;;;;;;;7.95;4.30;;;21.10;52.10;;;;;;4899804;29;20036;-72
2021/05/04 09:22:16;;;;;;;8.50;3.58;;;21.40;52.10;;;;;;4899272;29;20036;-74
2021/05/04 09:24:44;;;;;;;7.40;3.40;;;21.30;49.40;;;;;;4898827;29;20105;-75
2021/05/04 09:27:17;;;;;;;5.85;3.55;;;21.50;49.40;;;;;;4899592;29;20088;-76
2021/05/04 09:29:44;;;;;;;7.43;3.50;;;21.90;53.00;;;;;;4899049;29;20073;-77
2021/05/04 09:32:12;;;;;;;6.70;3.70;;;;;;;;;;4899574;29;20475;-75
2021/05/04 09:35:01;;;;;;;6.80;4.38;;;21.90;49.50;;;;;;4899005;29;20032;-76
2021/05/04 09:37:31;;;;;;;7.28;4.03;;;21.70;52.40;;;;;;4899101;29;20063;-76
2021/05/04 09:40:19;;;;;;;7.70;4.45;;;22.00;52.30;;;;;;4882963;29;20037;-75
2021/05/04 09:42:45;;;;;;;8.27;4.63;;;22.10;50.00;;;;;;4899080;29;20068;-71
2021/05/04 09:45:25;;;;;;;9.20;4.82;;;21.90;49.10;;;;;;4898775;29;20085;-77
2021/05/04 09:48:21;;;;;;;7.20;3.95;;;22.20;50.00;;;;;;4898938;29;20494;-75
2021/05/04 09:51:01;;;;;;;7.55;4.43;;;22.30;51.10;;;;;;4918852;29;20042;-76
2021/05/04 09:56:17;;;;;;;14.10;10.95;;;22.50;49.10;;;;;;4957844;29;20023;-73
2021/05/04 09:58:49;;;;;;;11.05;6.10;;;22.70;50.00;;;;;;4957606;29;20024;-75
2021/05/04 10:01:18;;;;;;;6.47;3.25;;;23.20;47.90;;;;;;4940353;29;20031;-76
2021/05/04 10:03:45;;;;;;;6.05;3.30;;;23.30;48.50;;;;;;4957455;29;20023;-73
2021/05/04 10:06:17;;;;;;;11.00;4.10;;;23.30;49.40;;;;;;4957834;29;20123;-76
2021/05/04 10:08:47;;;;;;;7.35;3.60;;;23.10;48.90;;;;;;4940250;29;20027;-75
2021/05/04 10:11:17;;;;;;;7.40;3.83;;;23.00;47.70;;;;;;4940072;29;20027;-76
2021/05/04 10:13:43;;;;;;;9.25;3.30;;;23.00;50.20;;;;;;4957590;29;20031;-75
2021/05/04 10:16:11;;;;;;;7.00;3.20;;;23.60;47.10;;;;;;4958108;29;20023;-74
2021/05/04 10:18:37;;;;;;;8.65;3.60;;;24.00;48.30;;;;;;4957695;29;20478;-73
2021/05/04 10:21:06;;;;;;;6.35;3.47;;;23.70;48.40;;;;;;4957634;29;20374;-76
2021/05/04 10:23:33;;;;;;;9.13;3.50;;;23.80;47.20;;;;;;4939800;29;20509;-76
2021/05/04 10:26:03;;;;;;;6.57;3.47;;;23.60;47.00;;;;;;4957229;29;20019;-74
2021/05/04 10:28:34;;;;;;;7.57;4.10;;;23.70;47.10;;;;;;4957201;29;20024;-76
2021/05/04 10:31:05;;;;;;;5.45;3.38;;;23.60;47.70;;;;;;4957764;29;20066;-74
2021/05/04 10:33:42;;;;;;;7.30;3.10;;;23.60;48.10;;;;;;4957011;29;20102;-75
2021/05/04 10:36:26;;;;;;;7.05;2.92;;;23.80;46.20;;;;;;4963108;28;20037;-74
2021/05/04 10:38:54;;;;;;;6.50;3.80;;;24.00;49.10;;;;;;4964078;28;20109;-73
2021/05/04 10:41:23;;;;;;;5.60;3.28;;;23.80;46.30;;;;;;4964799;28;20026;-74
2021/05/04 10:44:09;;;;;;;4.75;2.90;;;24.20;47.30;;;;;;4964442;28;20033;-73
2021/05/04 10:46:42;;;;;;;6.63;2.70;;;24.40;47.60;;;;;;4966481;28;20547;-73
2021/05/04 10:49:16;;;;;;;5.50;2.75;;;24.10;45.20;;;;;;4965423;28;20031;-73
2021/05/04 10:51:47;;;;;;;6.25;3.45;;;24.20;46.40;;;;;;4962970;28;20410;-75
2021/05/04 10:54:15;;;;;;;7.13;4.90;;;24.40;46.30;;;;;;4963795;28;20023;-75
2021/05/04 10:56:59;;;;;;;6.50;3.30;;;24.60;46.50;;;;;;4960795;28;20114;-74
2021/05/04 10:59:25;;;;;;;7.80;4.75;;;23.80;44.90;;;;;;4956735;29;20042;-72
2021/05/04 11:02:10;;;;;;;11.10;4.65;;;23.80;47.30;;;;;;4938908;29;20023;-74
2021/05/04 11:04:39;;;;;;;7.28;3.00;;;24.20;47.40;;;;;;4956583;29;20023;-78
2021/05/04 11:07:08;;;;;;;5.35;2.97;;;24.10;47.50;;;;;;4956288;29;20030;-74
2021/05/04 11:09:40;;;;;;;5.38;3.33;;;24.70;46.50;;;;;;4938849;29;20034;-75
2021/05/04 11:12:07;;;;;;;5.40;2.67;;;24.50;46.10;;;;;;4956714;29;20371;-73
2021/05/04 11:14:39;;;;;;;7.43;2.65;;;25.10;47.40;;;;;;4958394;29;20035;-74
2021/05/04 11:17:16;;;;;;;4.32;2.80;;;25.30;45.10;;;;;;4940666;29;20086;-72
2021/05/04 11:19:45;;;;;;;5.28;3.05;;;25.70;45.70;;;;;;4956550;29;20034;-72
2021/05/04 11:22:16;;;;;;;24.23;3.67;;;25.20;44.30;;;;;;4956426;29;20035;-76
2021/05/04 11:24:59;;;;;;;8.98;3.05;;;25.60;45.10;;;;;;4956458;29;20422;-76
2021/05/04 11:27:27;;;;;;;5.03;2.60;;;26.00;47.20;;;;;;4959482;28;20035;-76
2021/05/04 11:29:58;;;;;;;5.45;2.50;;;26.30;46.90;;;;;;4951871;28;20503;-74
2021/05/04 11:32:39;;;;;;;6.80;2.95;;;26.60;46.30;;;;;;4961029;28;20054;-74
2021/05/04 11:35:07;;;;;;;5.45;2.90;;;26.60;42.20;;;;;;4956167;29;20029;-75
2021/05/04 11:37:38;;;;;;;4.53;2.95;;;25.50;43.00;;;;;;4955901;29;20031;-74
2021/05/04 11:40:09;;;;;;;6.88;3.20;;;25.30;45.70;;;;;;4955978;29;20110;-76
2021/05/04 11:42:39;;;;;;;5.00;3.25;;;25.00;44.00;;;;;;4955956;29;20027;-75
2021/05/04 11:45:28;;;;;;;7.63;3.13;;;25.30;46.90;;;;;;4955848;29;20031;-76
2021/05/04 11:48:07;;;;;;;6.93;2.70;;;25.90;46.80;;;;;;4955599;28;20027;-75
2021/05/04 11:50:35;;;;;;;5.10;2.50;;;26.30;45.60;;;;;;4955320;29;20031;-77
2021/05/04 11:53:05;;;;;;;6.13;3.17;;;26.30;43.50;;;;;;4955365;29;20051;-78
2021/05/04 11:55:33;;;;;;;6.55;3.78;;;25.70;42.90;;;;;;4955992;29;20016;-77
2021/05/04 11:58:08;;;;;;;5.60;3.13;;;25.90;43.10;;;;;;4938336;29;20034;-73
2021/05/04 12:00:35;;;;;;;;;;;25.80;45.10;;;;;;4938420;29;20150;-76
2021/05/04 12:03:09;;;;;;;5.53;2.80;;;26.20;44.60;;;;;;4955784;29;19962;-77
2021/05/04 12:05:36;;;;;;;5.38;2.85;;;26.30;44.10;;;;;;4957784;28;20023;-72
2021/05/04 12:08:03;;;;;;;7.30;3.22;;;26.60;45.70;;;;;;4946670;28;20393;-72
2021/05/04 12:10:39;;;;;;;6.40;2.90;;;26.70;43.90;;;;;;4965152;28;20019;-73
2021/05/04 12:13:12;;;;;;;6.43;3.22;;;26.00;43.20;;;;;;4964485;28;20086;-71
2021/05/04 12:15:43;;;;;;;6.60;3.30;;;26.00;42.70;;;;;;4961866;28;20082;-72
2021/05/04 12:18:33;;;;;;;5.07;2.63;;;25.60;45.30;;;;;;4963199;28;20078;-72
2021/05/04 12:21:07;;;;;;;6.70;3.38;;;25.50;45.00;;;;;;4951315;28;20043;-75
2021/05/04 12:23:43;;;;;;;4.90;2.85;;;25.50;43.00;;;;;;4963890;28;20090;-72
2021/05/04 12:26:16;;;;;;;6.55;2.80;;;25.10;43.30;;;;;;4961775;28;20027;-73
2021/05/04 12:28:53;;;;;;;4.32;2.70;;;25.50;43.40;;;;;;4956532;29;20083;-74
2021/05/04 12:31:21;;;;;;;4.80;2.80;;;25.60;44.20;;;;;;4955763;29;20441;-74
2021/05/04 12:33:50;;;;;;;3.40;2.67;;;25.40;44.20;;;;;;4955540;28;20055;-78
2021/05/04 12:36:36;;;;;;;5.20;2.63;;;26.00;45.90;;;;;;4938280;29;20030;-76
2021/05/04 12:39:08;;;;;;;5.22;2.50;;;26.60;44.50;;;;;;4955416;29;20027;-77
2021/05/04 12:41:38;;;;;;;4.07;2.33;;;27.00;45.00;;;;;;4955555;29;20433;-75
2021/05/04 12:44:25;;;;;;;2.95;2.40;;;26.60;45.50;;;;;;4937784;29;20082;-73
2021/05/04 12:47:00;;;;;;;3.80;2.50;;;26.80;43.40;;;;;;4956075;29;20027;-76
2021/05/04 12:49:43;;;;;;;4.22;2.60;;;26.70;41.20;;;;;;4955158;29;20023;-76
2021/05/04 12:52:17;;;;;;;7.22;3.00;;;26.30;43.70;;;;;;4954853;29;20043;-73
2021/05/04 12:54:45;;;;;;;4.57;2.78;;;26.00;42.70;;;;;;4955473;29;20032;-74
2021/05/04 12:57:28;;;;;;;5.57;3.00;;;26.50;44.20;;;;;;4955465;29;20115;-75